sensor_id;sensor_type;location;lat;lon;timestamp;P1;durP1;ratioP1;P2;durP2;ratioP2
75408;SDS011;63979;55.644;37.734;2023-03-05T00:04:42;0.30;;;0.30;;
75408;SDS011;63979;55.644;37.734;2023-03-05T00:09:43;0.60;;;0.47;;
75408;SDS011;63979;55.644;37.734;2023-03-05T00:14:44;0.40;;;0.30;;
75408;SDS011;63979;55.644;37.734;2023-03-05T00:19:45;0.90;;;0.75;;
75408;SDS011;63979;55.644;37.734;2023-03-05T00:24:48;0.55;;;0.55;;
75408;SDS011;63979;55.644;37.734;2023-03-05T00:29:50;0.60;;;0.60;;
75408;SDS011;63979;55.644;37.734;2023-03-05T00:34:51;0.65;;;0.55;;
75408;SDS011;63979;55.644;37.734;2023-03-05T00:39:52;1.17;;;0.65;;
75408;SDS011;63979;55.644;37.734;2023-03-05T00:44:53;0.43;;;0.40;;
75408;SDS011;63979;55.644;37.734;2023-03-05T00:49:54;1.20;;;0.35;;
75408;SDS011;63979;55.644;37.734;2023-03-05T00:54:55;1.33;;;0.30;;
75408;SDS011;63979;55.644;37.734;2023-03-05T00:59:55;0.30;;;0.30;;
75408;SDS011;63979;55.644;37.734;2023-03-05T01:04:57;2.30;;;0.50;;
75408;SDS011;63979;55.644;37.734;2023-03-05T01:09:57;2.80;;;0.63;;
75408;SDS011;63979;55.644;37.734;2023-03-05T01:14:59;0.22;;;0.20;;
75408;SDS011;63979;55.644;37.734;2023-03-05T01:20:00;0.17;;;0.13;;
75408;SDS011;63979;55.644;37.734;2023-03-05T01:25:01;0.70;;;0.40;;
75408;SDS011;63979;55.644;37.734;2023-03-05T01:30:02;0.40;;;0.25;;
75408;SDS011;63979;55.644;37.734;2023-03-05T01:35:05;0.85;;;0.28;;
75408;SDS011;63979;55.644;37.734;2023-03-05T01:40:06;1.00;;;0.38;;
75408;SDS011;63979;55.644;37.734;2023-03-05T01:45:11;0.32;;;0.22;;
75408;SDS011;63979;55.644;37.734;2023-03-05T01:50:15;1.10;;;0.55;;
75408;SDS011;63979;55.644;37.734;2023-03-05T01:55:20;0.47;;;0.47;;
75408;SDS011;63979;55.644;37.734;2023-03-05T02:00:28;2.25;;;0.52;;
75408;SDS011;63979;55.644;37.734;2023-03-05T02:05:35;0.32;;;0.30;;
75408;SDS011;63979;55.644;37.734;2023-03-05T02:10:39;0.93;;;0.40;;
75408;SDS011;63979;55.644;37.734;2023-03-05T02:15:53;0.20;;;0.20;;
75408;SDS011;63979;55.644;37.734;2023-03-05T02:25:55;0.77;;;0.40;;
75408;SDS011;63979;55.644;37.734;2023-03-05T02:30:56;0.50;;;0.38;;
75408;SDS011;63979;55.644;37.734;2023-03-05T02:35:57;0.15;;;0.15;;
75408;SDS011;63979;55.644;37.734;2023-03-05T02:40:58;0.70;;;0.70;;
75408;SDS011;63979;55.644;37.734;2023-03-05T02:45:59;0.98;;;0.50;;
75408;SDS011;63979;55.644;37.734;2023-03-05T02:51:01;0.98;;;0.38;;
75408;SDS011;63979;55.644;37.734;2023-03-05T02:56:03;0.38;;;0.30;;
75408;SDS011;63979;55.644;37.734;2023-03-05T03:01:04;0.90;;;0.40;;
75408;SDS011;63979;55.644;37.734;2023-03-05T03:06:06;0.50;;;0.45;;
75408;SDS011;63979;55.644;37.734;2023-03-05T03:11:09;0.30;;;0.30;;
75408;SDS011;63979;55.644;37.734;2023-03-05T03:16:14;1.38;;;0.68;;
75408;SDS011;63979;55.644;37.734;2023-03-05T03:21:19;2.10;;;0.65;;
75408;SDS011;63979;55.644;37.734;2023-03-05T03:26:22;0.73;;;0.40;;
75408;SDS011;63979;55.644;37.734;2023-03-05T03:31:23;1.20;;;0.70;;
75408;SDS011;63979;55.644;37.734;2023-03-05T03:36:24;0.73;;;0.50;;
75408;SDS011;63979;55.644;37.734;2023-03-05T03:41:25;0.38;;;0.30;;
75408;SDS011;63979;55.644;37.734;2023-03-05T03:46:26;3.40;;;0.57;;
75408;SDS011;63979;55.644;37.734;2023-03-05T03:51:27;0.40;;;0.40;;
75408;SDS011;63979;55.644;37.734;2023-03-05T03:56:28;1.33;;;1.23;;
75408;SDS011;63979;55.644;37.734;2023-03-05T04:01:29;1.00;;;0.73;;
75408;SDS011;63979;55.644;37.734;2023-03-05T04:06:30;3.25;;;0.68;;
75408;SDS011;63979;55.644;37.734;2023-03-05T04:11:31;0.55;;;0.43;;
75408;SDS011;63979;55.644;37.734;2023-03-05T04:16:32;0.63;;;0.50;;
75408;SDS011;63979;55.644;37.734;2023-03-05T04:21:33;0.93;;;0.50;;
75408;SDS011;63979;55.644;37.734;2023-03-05T04:26:33;0.82;;;0.47;;
75408;SDS011;63979;55.644;37.734;2023-03-05T04:31:34;1.10;;;0.52;;
75408;SDS011;63979;55.644;37.734;2023-03-05T04:36:36;1.25;;;1.13;;
75408;SDS011;63979;55.644;37.734;2023-03-05T04:41:36;3.55;;;1.63;;
75408;SDS011;63979;55.644;37.734;2023-03-05T04:46:38;1.10;;;0.80;;
75408;SDS011;63979;55.644;37.734;2023-03-05T04:51:39;0.77;;;0.40;;
75408;SDS011;63979;55.644;37.734;2023-03-05T04:56:40;0.47;;;0.40;;
75408;SDS011;63979;55.644;37.734;2023-03-05T05:01:40;1.08;;;0.30;;
75408;SDS011;63979;55.644;37.734;2023-03-05T05:06:42;1.38;;;0.80;;
75408;SDS011;63979;55.644;37.734;2023-03-05T05:11:43;0.40;;;0.40;;
75408;SDS011;63979;55.644;37.734;2023-03-05T05:16:44;0.47;;;0.47;;
75408;SDS011;63979;55.644;37.734;2023-03-05T05:21:45;4.53;;;1.25;;
75408;SDS011;63979;55.644;37.734;2023-03-05T05:26:46;0.57;;;0.40;;
75408;SDS011;63979;55.644;37.734;2023-03-05T05:31:47;0.63;;;0.40;;
75408;SDS011;63979;55.644;37.734;2023-03-05T05:36:48;0.85;;;0.75;;
75408;SDS011;63979;55.644;37.734;2023-03-05T05:41:49;1.08;;;0.50;;
75408;SDS011;63979;55.644;37.734;2023-03-05T05:46:53;0.52;;;0.40;;
75408;SDS011;63979;55.644;37.734;2023-03-05T05:51:53;1.38;;;0.40;;
75408;SDS011;63979;55.644;37.734;2023-03-05T05:56:55;0.20;;;0.20;;
75408;SDS011;63979;55.644;37.734;2023-03-05T06:01:55;0.75;;;0.43;;
75408;SDS011;63979;55.644;37.734;2023-03-05T06:06:57;1.45;;;0.93;;
75408;SDS011;63979;55.644;37.734;2023-03-05T06:11:58;0.90;;;0.88;;
75408;SDS011;63979;55.644;37.734;2023-03-05T06:16:59;0.77;;;0.30;;
75408;SDS011;63979;55.644;37.734;2023-03-05T06:22:00;0.88;;;0.40;;
75408;SDS011;63979;55.644;37.734;2023-03-05T06:27:02;1.00;;;0.22;;
75408;SDS011;63979;55.644;37.734;2023-03-05T06:32:04;0.88;;;0.20;;
75408;SDS011;63979;55.644;37.734;2023-03-05T06:37:05;0.80;;;0.50;;
75408;SDS011;63979;55.644;37.734;2023-03-05T06:42:07;0.40;;;0.30;;
75408;SDS011;63979;55.644;37.734;2023-03-05T06:47:08;3.63;;;0.95;;
75408;SDS011;63979;55.644;37.734;2023-03-05T06:52:12;0.30;;;0.28;;
75408;SDS011;63979;55.644;37.734;2023-03-05T06:57:13;0.57;;;0.32;;
75408;SDS011;63979;55.644;37.734;2023-03-05T07:02:14;0.88;;;0.57;;
75408;SDS011;63979;55.644;37.734;2023-03-05T07:07:15;2.33;;;0.60;;
75408;SDS011;63979;55.644;37.734;2023-03-05T07:12:16;0.20;;;0.20;;
75408;SDS011;63979;55.644;37.734;2023-03-05T07:17:17;0.28;;;0.20;;
75408;SDS011;63979;55.644;37.734;2023-03-05T07:22:18;2.15;;;0.93;;
75408;SDS011;63979;55.644;37.734;2023-03-05T07:27:19;0.52;;;0.40;;
75408;SDS011;63979;55.644;37.734;2023-03-05T07:32:22;0.75;;;0.57;;
75408;SDS011;63979;55.644;37.734;2023-03-05T07:37:23;1.23;;;0.70;;
75408;SDS011;63979;55.644;37.734;2023-03-05T07:42:24;1.02;;;0.93;;
75408;SDS011;63979;55.644;37.734;2023-03-05T07:47:25;0.70;;;0.40;;
75408;SDS011;63979;55.644;37.734;2023-03-05T07:52:26;0.60;;;0.60;;
75408;SDS011;63979;55.644;37.734;2023-03-05T07:57:27;1.92;;;0.93;;
75408;SDS011;63979;55.644;37.734;2023-03-05T08:02:28;3.88;;;1.20;;
75408;SDS011;63979;55.644;37.734;2023-03-05T08:07:29;1.45;;;1.08;;
75408;SDS011;63979;55.644;37.734;2023-03-05T08:12:30;1.67;;;0.85;;
75408;SDS011;63979;55.644;37.734;2023-03-05T08:17:31;1.70;;;0.95;;
75408;SDS011;63979;55.644;37.734;2023-03-05T08:22:32;2.00;;;1.25;;
75408;SDS011;63979;55.644;37.734;2023-03-05T08:27:37;2.92;;;2.20;;
75408;SDS011;63979;55.644;37.734;2023-03-05T08:32:42;3.75;;;1.70;;
75408;SDS011;63979;55.644;37.734;2023-03-05T08:37:43;1.05;;;0.98;;
75408;SDS011;63979;55.644;37.734;2023-03-05T08:42:44;2.92;;;1.73;;
75408;SDS011;63979;55.644;37.734;2023-03-05T08:47:45;4.13;;;2.42;;
75408;SDS011;63979;55.644;37.734;2023-03-05T08:52:48;3.80;;;2.05;;
75408;SDS011;63979;55.644;37.734;2023-03-05T08:57:49;2.22;;;1.92;;
75408;SDS011;63979;55.644;37.734;2023-03-05T09:02:50;2.58;;;2.22;;
75408;SDS011;63979;55.644;37.734;2023-03-05T09:07:51;2.53;;;2.05;;
75408;SDS011;63979;55.644;37.734;2023-03-05T09:12:52;2.28;;;1.85;;
75408;SDS011;63979;55.644;37.734;2023-03-05T09:17:53;6.45;;;3.05;;
75408;SDS011;63979;55.644;37.734;2023-03-05T09:22:55;2.38;;;1.85;;
75408;SDS011;63979;55.644;37.734;2023-03-05T09:27:56;3.83;;;2.30;;
75408;SDS011;63979;55.644;37.734;2023-03-05T09:32:57;4.60;;;2.55;;
75408;SDS011;63979;55.644;37.734;2023-03-05T09:37:58;2.80;;;1.35;;
75408;SDS011;63979;55.644;37.734;2023-03-05T09:48:12;3.40;;;2.22;;
75408;SDS011;63979;55.644;37.734;2023-03-05T09:58:45;2.47;;;1.65;;
75408;SDS011;63979;55.644;37.734;2023-03-05T10:04:22;3.03;;;2.28;;
75408;SDS011;63979;55.644;37.734;2023-03-05T10:25:53;3.45;;;2.47;;
75408;SDS011;63979;55.644;37.734;2023-03-05T10:36:26;3.80;;;2.55;;
75408;SDS011;63979;55.644;37.734;2023-03-05T10:41:53;5.82;;;2.92;;
75408;SDS011;63979;55.644;37.734;2023-03-05T10:47:02;4.30;;;3.13;;
75408;SDS011;63979;55.644;37.734;2023-03-05T10:57:36;5.40;;;3.30;;
75408;SDS011;63979;55.644;37.734;2023-03-05T11:07:59;5.18;;;2.95;;
75408;SDS011;63979;55.644;37.734;2023-03-05T11:13:00;3.88;;;2.80;;
75408;SDS011;63979;55.644;37.734;2023-03-05T11:18:24;4.35;;;2.95;;
75408;SDS011;63979;55.644;37.734;2023-03-05T11:23:25;3.08;;;2.50;;
75408;SDS011;63979;55.644;37.734;2023-03-05T11:28:31;3.92;;;2.92;;
75408;SDS011;63979;55.644;37.734;2023-03-05T11:33:34;5.85;;;2.80;;
75408;SDS011;63979;55.644;37.734;2023-03-05T11:38:43;3.55;;;2.78;;
75408;SDS011;63979;55.644;37.734;2023-03-05T11:43:55;4.50;;;3.70;;
75408;SDS011;63979;55.644;37.734;2023-03-05T11:49:03;5.68;;;3.30;;
75408;SDS011;63979;55.644;37.734;2023-03-05T11:54:07;6.30;;;3.33;;
75408;SDS011;63979;55.644;37.734;2023-03-05T11:59:17;5.53;;;3.90;;
75408;SDS011;63979;55.644;37.734;2023-03-05T12:04:40;3.30;;;3.00;;
75408;SDS011;63979;55.644;37.734;2023-03-05T12:09:43;4.80;;;4.03;;
75408;SDS011;63979;55.644;37.734;2023-03-05T12:19:51;4.68;;;3.45;;
75408;SDS011;63979;55.644;37.734;2023-03-05T12:24:54;2.97;;;2.65;;
75408;SDS011;63979;55.644;37.734;2023-03-05T12:35:35;4.43;;;3.17;;
75408;SDS011;63979;55.644;37.734;2023-03-05T12:40:45;4.78;;;3.58;;
75408;SDS011;63979;55.644;37.734;2023-03-05T12:45:46;4.68;;;3.13;;
75408;SDS011;63979;55.644;37.734;2023-03-05T12:50:47;7.15;;;3.53;;
75408;SDS011;63979;55.644;37.734;2023-03-05T13:01:35;6.22;;;4.18;;
75408;SDS011;63979;55.644;37.734;2023-03-05T13:07:00;3.63;;;2.75;;
75408;SDS011;63979;55.644;37.734;2023-03-05T13:12:09;7.68;;;3.45;;
75408;SDS011;63979;55.644;37.734;2023-03-05T13:17:26;4.22;;;2.83;;
75408;SDS011;63979;55.644;37.734;2023-03-05T13:22:34;5.15;;;2.80;;
75408;SDS011;63979;55.644;37.734;2023-03-05T13:27:36;4.15;;;2.85;;
75408;SDS011;63979;55.644;37.734;2023-03-05T13:32:37;3.22;;;2.47;;
75408;SDS011;63979;55.644;37.734;2023-03-05T13:37:39;4.38;;;2.33;;
75408;SDS011;63979;55.644;37.734;2023-03-05T13:42:41;4.25;;;3.13;;
75408;SDS011;63979;55.644;37.734;2023-03-05T13:47:49;7.85;;;3.40;;
75408;SDS011;63979;55.644;37.734;2023-03-05T13:52:53;3.88;;;3.05;;
75408;SDS011;63979;55.644;37.734;2023-03-05T13:57:54;6.32;;;3.55;;
75408;SDS011;63979;55.644;37.734;2023-03-05T14:02:56;4.13;;;2.70;;
75408;SDS011;63979;55.644;37.734;2023-03-05T14:08:21;5.30;;;2.28;;
75408;SDS011;63979;55.644;37.734;2023-03-05T14:13:24;5.15;;;3.10;;
75408;SDS011;63979;55.644;37.734;2023-03-05T14:18:27;6.88;;;3.45;;
75408;SDS011;63979;55.644;37.734;2023-03-05T14:28:31;4.32;;;2.45;;
75408;SDS011;63979;55.644;37.734;2023-03-05T14:33:36;6.95;;;3.28;;
75408;SDS011;63979;55.644;37.734;2023-03-05T14:38:38;2.95;;;2.25;;
75408;SDS011;63979;55.644;37.734;2023-03-05T14:48:41;4.93;;;3.40;;
75408;SDS011;63979;55.644;37.734;2023-03-05T14:53:44;6.20;;;3.17;;
75408;SDS011;63979;55.644;37.734;2023-03-05T14:58:49;5.50;;;3.00;;
75408;SDS011;63979;55.644;37.734;2023-03-05T15:03:50;2.85;;;2.03;;
75408;SDS011;63979;55.644;37.734;2023-03-05T15:08:51;5.45;;;3.92;;
75408;SDS011;63979;55.644;37.734;2023-03-05T15:13:52;4.00;;;2.90;;
75408;SDS011;63979;55.644;37.734;2023-03-05T15:18:53;4.07;;;2.58;;
75408;SDS011;63979;55.644;37.734;2023-03-05T15:23:54;3.65;;;2.60;;
75408;SDS011;63979;55.644;37.734;2023-03-05T15:28:55;4.30;;;2.63;;
75408;SDS011;63979;55.644;37.734;2023-03-05T15:33:56;2.70;;;1.50;;
75408;SDS011;63979;55.644;37.734;2023-03-05T15:38:57;8.52;;;2.90;;
75408;SDS011;63979;55.644;37.734;2023-03-05T15:43:58;5.75;;;2.55;;
75408;SDS011;63979;55.644;37.734;2023-03-05T15:48:59;3.15;;;2.15;;
75408;SDS011;63979;55.644;37.734;2023-03-05T15:54:02;2.20;;;1.80;;
75408;SDS011;63979;55.644;37.734;2023-03-05T15:59:03;3.42;;;2.35;;
75408;SDS011;63979;55.644;37.734;2023-03-05T16:04:05;3.97;;;2.22;;
75408;SDS011;63979;55.644;37.734;2023-03-05T16:09:06;7.57;;;2.80;;
75408;SDS011;63979;55.644;37.734;2023-03-05T16:14:07;4.43;;;1.92;;
75408;SDS011;63979;55.644;37.734;2023-03-05T16:19:10;4.13;;;2.55;;
75408;SDS011;63979;55.644;37.734;2023-03-05T16:24:14;6.15;;;3.90;;
75408;SDS011;63979;55.644;37.734;2023-03-05T16:29:15;7.57;;;4.22;;
75408;SDS011;63979;55.644;37.734;2023-03-05T16:34:16;7.70;;;3.45;;
75408;SDS011;63979;55.644;37.734;2023-03-05T16:39:19;5.97;;;3.20;;
75408;SDS011;63979;55.644;37.734;2023-03-05T16:44:20;4.38;;;2.95;;
75408;SDS011;63979;55.644;37.734;2023-03-05T16:49:21;4.28;;;2.97;;
75408;SDS011;63979;55.644;37.734;2023-03-05T16:54:22;3.90;;;2.70;;
75408;SDS011;63979;55.644;37.734;2023-03-05T16:59:23;4.45;;;3.05;;
75408;SDS011;63979;55.644;37.734;2023-03-05T17:04:24;12.43;;;3.30;;
75408;SDS011;63979;55.644;37.734;2023-03-05T17:09:25;4.63;;;2.20;;
75408;SDS011;63979;55.644;37.734;2023-03-05T17:14:26;2.95;;;2.28;;
75408;SDS011;63979;55.644;37.734;2023-03-05T17:19:28;2.83;;;2.00;;
75408;SDS011;63979;55.644;37.734;2023-03-05T17:24:29;3.03;;;2.10;;
75408;SDS011;63979;55.644;37.734;2023-03-05T17:29:32;3.30;;;2.08;;
75408;SDS011;63979;55.644;37.734;2023-03-05T17:34:33;3.20;;;2.05;;
75408;SDS011;63979;55.644;37.734;2023-03-05T17:39:36;8.00;;;2.80;;
75408;SDS011;63979;55.644;37.734;2023-03-05T17:44:38;4.15;;;2.70;;
75408;SDS011;63979;55.644;37.734;2023-03-05T17:49:39;4.03;;;2.25;;
75408;SDS011;63979;55.644;37.734;2023-03-05T17:54:40;9.15;;;3.15;;
75408;SDS011;63979;55.644;37.734;2023-03-05T17:59:41;5.85;;;2.92;;
75408;SDS011;63979;55.644;37.734;2023-03-05T18:04:41;5.78;;;3.10;;
75408;SDS011;63979;55.644;37.734;2023-03-05T18:09:43;5.50;;;3.75;;
75408;SDS011;63979;55.644;37.734;2023-03-05T18:14:45;11.90;;;4.15;;
75408;SDS011;63979;55.644;37.734;2023-03-05T18:19:45;4.20;;;2.75;;
75408;SDS011;63979;55.644;37.734;2023-03-05T18:24:46;4.15;;;3.30;;
75408;SDS011;63979;55.644;37.734;2023-03-05T18:29:48;6.55;;;3.88;;
75408;SDS011;63979;55.644;37.734;2023-03-05T18:34:53;5.45;;;3.47;;
75408;SDS011;63979;55.644;37.734;2023-03-05T18:39:54;5.22;;;3.15;;
75408;SDS011;63979;55.644;37.734;2023-03-05T18:44:54;4.72;;;2.90;;
75408;SDS011;63979;55.644;37.734;2023-03-05T18:49:56;7.00;;;4.00;;
75408;SDS011;63979;55.644;37.734;2023-03-05T18:54:56;4.10;;;2.92;;
75408;SDS011;63979;55.644;37.734;2023-03-05T18:59:58;4.75;;;2.92;;
75408;SDS011;63979;55.644;37.734;2023-03-05T19:04:59;5.20;;;3.58;;
75408;SDS011;63979;55.644;37.734;2023-03-05T19:10:00;4.20;;;3.17;;
75408;SDS011;63979;55.644;37.734;2023-03-05T19:15:06;6.03;;;3.10;;
75408;SDS011;63979;55.644;37.734;2023-03-05T19:20:09;2.95;;;2.10;;
75408;SDS011;63979;55.644;37.734;2023-03-05T19:30:13;9.95;;;4.18;;
75408;SDS011;63979;55.644;37.734;2023-03-05T19:35:15;12.05;;;4.50;;
75408;SDS011;63979;55.644;37.734;2023-03-05T19:40:17;10.10;;;5.47;;
75408;SDS011;63979;55.644;37.734;2023-03-05T19:45:19;10.52;;;4.28;;
75408;SDS011;63979;55.644;37.734;2023-03-05T19:50:20;6.85;;;4.40;;
75408;SDS011;63979;55.644;37.734;2023-03-05T19:55:21;6.53;;;4.32;;
75408;SDS011;63979;55.644;37.734;2023-03-05T20:00:23;7.25;;;4.75;;
75408;SDS011;63979;55.644;37.734;2023-03-05T20:05:26;5.80;;;4.18;;
75408;SDS011;63979;55.644;37.734;2023-03-05T20:10:28;7.22;;;4.55;;
75408;SDS011;63979;55.644;37.734;2023-03-05T20:15:29;8.68;;;4.10;;
75408;SDS011;63979;55.644;37.734;2023-03-05T20:20:29;11.85;;;5.90;;
75408;SDS011;63979;55.644;37.734;2023-03-05T20:25:30;16.00;;;5.40;;
75408;SDS011;63979;55.644;37.734;2023-03-05T20:30:31;12.75;;;4.85;;
75408;SDS011;63979;55.644;37.734;2023-03-05T20:35:32;4.93;;;3.47;;
75408;SDS011;63979;55.644;37.734;2023-03-05T20:40:33;7.35;;;4.75;;
75408;SDS011;63979;55.644;37.734;2023-03-05T20:45:34;6.38;;;4.80;;
75408;SDS011;63979;55.644;37.734;2023-03-05T20:50:35;11.70;;;6.25;;
75408;SDS011;63979;55.644;37.734;2023-03-05T20:55:36;13.18;;;6.05;;
75408;SDS011;63979;55.644;37.734;2023-03-05T21:00:37;12.13;;;6.97;;
75408;SDS011;63979;55.644;37.734;2023-03-05T21:05:39;14.68;;;5.32;;
75408;SDS011;63979;55.644;37.734;2023-03-05T21:10:40;10.43;;;6.68;;
75408;SDS011;63979;55.644;37.734;2023-03-05T21:15:41;13.07;;;6.35;;
75408;SDS011;63979;55.644;37.734;2023-03-05T21:20:42;11.75;;;6.20;;
75408;SDS011;63979;55.644;37.734;2023-03-05T21:25:43;7.38;;;4.95;;
75408;SDS011;63979;55.644;37.734;2023-03-05T21:30:45;8.70;;;4.65;;
75408;SDS011;63979;55.644;37.734;2023-03-05T21:35:51;8.23;;;4.00;;
75408;SDS011;63979;55.644;37.734;2023-03-05T21:40:53;10.27;;;6.28;;
75408;SDS011;63979;55.644;37.734;2023-03-05T21:45:54;10.18;;;6.32;;
75408;SDS011;63979;55.644;37.734;2023-03-05T21:50:56;7.53;;;4.50;;
75408;SDS011;63979;55.644;37.734;2023-03-05T21:56:07;10.30;;;5.03;;
75408;SDS011;63979;55.644;37.734;2023-03-05T22:01:22;9.27;;;4.97;;
75408;SDS011;63979;55.644;37.734;2023-03-05T22:06:23;6.63;;;4.35;;
75408;SDS011;63979;55.644;37.734;2023-03-05T22:11:25;8.32;;;4.47;;
75408;SDS011;63979;55.644;37.734;2023-03-05T22:16:26;6.97;;;3.25;;
75408;SDS011;63979;55.644;37.734;2023-03-05T22:21:27;7.68;;;4.18;;
75408;SDS011;63979;55.644;37.734;2023-03-05T22:26:34;4.20;;;3.13;;
75408;SDS011;63979;55.644;37.734;2023-03-05T22:31:37;7.40;;;3.45;;
75408;SDS011;63979;55.644;37.734;2023-03-05T22:36:39;6.97;;;4.40;;
75408;SDS011;63979;55.644;37.734;2023-03-05T22:41:40;4.43;;;3.53;;
75408;SDS011;63979;55.644;37.734;2023-03-05T22:46:41;3.97;;;2.53;;
75408;SDS011;63979;55.644;37.734;2023-03-05T22:51:43;6.32;;;4.00;;
75408;SDS011;63979;55.644;37.734;2023-03-05T22:56:44;4.78;;;3.17;;
75408;SDS011;63979;55.644;37.734;2023-03-05T23:01:45;7.43;;;4.55;;
75408;SDS011;63979;55.644;37.734;2023-03-05T23:06:46;5.88;;;3.08;;
75408;SDS011;63979;55.644;37.734;2023-03-05T23:11:47;7.63;;;4.72;;
75408;SDS011;63979;55.644;37.734;2023-03-05T23:16:48;8.52;;;3.17;;
75408;SDS011;63979;55.644;37.734;2023-03-05T23:21:49;5.28;;;2.80;;
75408;SDS011;63979;55.644;37.734;2023-03-05T23:26:50;3.67;;;2.28;;
75408;SDS011;63979;55.644;37.734;2023-03-05T23:31:53;2.90;;;1.88;;
75408;SDS011;63979;55.644;37.734;2023-03-05T23:41:55;6.07;;;3.13;;
75408;SDS011;63979;55.644;37.734;2023-03-05T23:46:56;5.55;;;4.13;;
75408;SDS011;63979;55.644;37.734;2023-03-05T23:51:56;4.22;;;2.45;;
75408;SDS011;63979;55.644;37.734;2023-03-05T23:56:57;4.07;;;2.55;;
